sensor_id;sensor_type;location;lat;lon;timestamp;pressure;altitude;pressure_sealevel;temperature;humidity
80242;BME280;69556;45.004;7.532;2024-02-26T00:02:15;97589.50;;;6.84;97.17
80242;BME280;69556;45.004;7.532;2024-02-26T00:04:41;97594.75;;;6.84;96.75
80242;BME280;69556;45.004;7.532;2024-02-26T00:07:06;97593.22;;;6.77;96.78
80242;BME280;69556;45.004;7.532;2024-02-26T00:09:32;97585.31;;;6.79;97.30
80242;BME280;69556;45.004;7.532;2024-02-26T00:12:01;97579.41;;;6.72;97.02
80242;BME280;69556;45.004;7.532;2024-02-26T00:14:26;97580.13;;;6.77;97.37
80242;BME280;69556;45.004;7.532;2024-02-26T00:16:51;97582.84;;;6.74;97.36
80242;BME280;69556;45.004;7.532;2024-02-26T00:19:17;97594.22;;;6.75;97.36
80242;BME280;69556;45.004;7.532;2024-02-26T00:21:42;97589.75;;;6.77;96.57
80242;BME280;69556;45.004;7.532;2024-02-26T00:24:08;97583.72;;;6.75;97.43
80242;BME280;69556;45.004;7.532;2024-02-26T00:26:33;97585.59;;;6.71;97.57
80242;BME280;69556;45.004;7.532;2024-02-26T00:28:58;97584.00;;;6.67;97.50
80242;BME280;69556;45.004;7.532;2024-02-26T00:31:24;97577.72;;;6.71;97.46
80242;BME280;69556;45.004;7.532;2024-02-26T00:33:49;97574.28;;;6.69;97.77
80242;BME280;69556;45.004;7.532;2024-02-26T00:36:15;97566.38;;;6.71;97.94
80242;BME280;69556;45.004;7.532;2024-02-26T00:38:40;97574.28;;;6.69;96.97
80242;BME280;69556;45.004;7.532;2024-02-26T00:41:06;97575.31;;;6.65;97.18
80242;BME280;69556;45.004;7.532;2024-02-26T00:43:31;97569.38;;;6.60;96.87
80242;BME280;69556;45.004;7.532;2024-02-26T00:45:56;97571.28;;;6.55;96.86
80242;BME280;69556;45.004;7.532;2024-02-26T00:48:22;97563.41;;;6.55;97.30
80242;BME280;69556;45.004;7.532;2024-02-26T00:50:47;97549.44;;;6.54;98.37
80242;BME280;69556;45.004;7.532;2024-02-26T00:53:13;97544.22;;;6.54;98.06
80242;BME280;69556;45.004;7.532;2024-02-26T00:55:38;97549.41;;;6.56;98.45
80242;BME280;69556;45.004;7.532;2024-02-26T00:58:03;97538.03;;;6.57;99.52
80242;BME280;69556;45.004;7.532;2024-02-26T01:00:29;97537.25;;;6.53;99.32
80242;BME280;69556;45.004;7.532;2024-02-26T01:02:54;97531.25;;;6.50;99.77
80242;BME280;69556;45.004;7.532;2024-02-26T01:05:20;97526.13;;;6.47;99.39
80242;BME280;69556;45.004;7.532;2024-02-26T01:07:45;97527.03;;;6.46;99.43
80242;BME280;69556;45.004;7.532;2024-02-26T01:10:10;97521.63;;;6.50;98.76
80242;BME280;69556;45.004;7.532;2024-02-26T01:12:36;97531.38;;;6.47;99.24
80242;BME280;69556;45.004;7.532;2024-02-26T01:15:02;97527.94;;;6.45;98.69
80242;BME280;69556;45.004;7.532;2024-02-26T01:17:28;97534.13;;;6.44;98.30
80242;BME280;69556;45.004;7.532;2024-02-26T01:19:53;97529.78;;;6.43;98.48
80242;BME280;69556;45.004;7.532;2024-02-26T01:22:19;97529.06;;;6.38;98.66
80242;BME280;69556;45.004;7.532;2024-02-26T01:24:45;97525.28;;;6.46;98.67
80242;BME280;69556;45.004;7.532;2024-02-26T01:27:10;97528.09;;;6.40;99.01
80242;BME280;69556;45.004;7.532;2024-02-26T01:29:35;97527.09;;;6.44;98.64
80242;BME280;69556;45.004;7.532;2024-02-26T01:32:01;97520.06;;;6.45;98.15
80242;BME280;69556;45.004;7.532;2024-02-26T01:34:26;97518.41;;;6.44;98.09
80242;BME280;69556;45.004;7.532;2024-02-26T01:36:52;97505.38;;;6.41;98.36
80242;BME280;69556;45.004;7.532;2024-02-26T01:39:17;97508.91;;;6.40;98.92
80242;BME280;69556;45.004;7.532;2024-02-26T01:41:43;97513.41;;;6.36;98.44
80242;BME280;69556;45.004;7.532;2024-02-26T01:44:12;97506.53;;;6.32;98.04
80242;BME280;69556;45.004;7.532;2024-02-26T01:46:37;97506.38;;;6.37;97.53
80242;BME280;69556;45.004;7.532;2024-02-26T01:49:03;97489.69;;;6.39;97.73
80242;BME280;69556;45.004;7.532;2024-02-26T01:51:30;97498.56;;;6.35;98.36
80242;BME280;69556;45.004;7.532;2024-02-26T01:53:56;97496.97;;;6.31;96.36
80242;BME280;69556;45.004;7.532;2024-02-26T01:56:23;97502.00;;;6.37;96.16
80242;BME280;69556;45.004;7.532;2024-02-26T01:58:53;97501.16;;;6.37;95.80
80242;BME280;69556;45.004;7.532;2024-02-26T02:01:20;97504.63;;;6.37;95.94
80242;BME280;69556;45.004;7.532;2024-02-26T02:03:46;97501.16;;;6.37;96.94
80242;BME280;69556;45.004;7.532;2024-02-26T02:06:12;97488.94;;;6.36;96.20
80242;BME280;69556;45.004;7.532;2024-02-26T02:08:38;97488.03;;;6.37;95.74
80242;BME280;69556;45.004;7.532;2024-02-26T02:11:04;97484.72;;;6.32;95.96
80242;BME280;69556;45.004;7.532;2024-02-26T02:13:29;97481.19;;;6.33;95.75
80242;BME280;69556;45.004;7.532;2024-02-26T02:15:55;97484.56;;;6.36;95.78
80242;BME280;69556;45.004;7.532;2024-02-26T02:18:20;97481.91;;;6.38;96.27
80242;BME280;69556;45.004;7.532;2024-02-26T02:20:45;97473.19;;;6.37;96.44
80242;BME280;69556;45.004;7.532;2024-02-26T02:23:11;97475.75;;;6.39;96.36
80242;BME280;69556;45.004;7.532;2024-02-26T02:25:36;97481.09;;;6.36;96.51
80242;BME280;69556;45.004;7.532;2024-02-26T02:28:02;97473.19;;;6.37;96.95
80242;BME280;69556;45.004;7.532;2024-02-26T02:30:30;97467.13;;;6.35;97.38
80242;BME280;69556;45.004;7.532;2024-02-26T02:32:57;97464.56;;;6.34;96.27
80242;BME280;69556;45.004;7.532;2024-02-26T02:35:23;97468.88;;;6.35;96.75
80242;BME280;69556;45.004;7.532;2024-02-26T02:37:51;97462.84;;;6.33;97.46
80242;BME280;69556;45.004;7.532;2024-02-26T02:40:17;97464.34;;;6.40;97.42
80242;BME280;69556;45.004;7.532;2024-02-26T02:42:42;97467.91;;;6.39;98.65
80242;BME280;69556;45.004;7.532;2024-02-26T02:45:08;97453.81;;;6.41;98.54
80242;BME280;69556;45.004;7.532;2024-02-26T02:47:36;97442.63;;;6.36;97.81
80242;BME280;69556;45.004;7.532;2024-02-26T02:50:01;97443.78;;;6.29;97.95
80242;BME280;69556;45.004;7.532;2024-02-26T02:52:27;97444.47;;;6.34;98.31
80242;BME280;69556;45.004;7.532;2024-02-26T02:54:52;97451.63;;;6.29;98.15
80242;BME280;69556;45.004;7.532;2024-02-26T02:57:18;97446.13;;;6.37;98.48
80242;BME280;69556;45.004;7.532;2024-02-26T02:59:43;97454.66;;;6.42;98.46
80242;BME280;69556;45.004;7.532;2024-02-26T03:02:08;97447.84;;;6.38;98.42
80242;BME280;69556;45.004;7.532;2024-02-26T03:04:34;97458.53;;;6.32;98.02
80242;BME280;69556;45.004;7.532;2024-02-26T03:06:59;97451.41;;;6.35;98.14
80242;BME280;69556;45.004;7.532;2024-02-26T03:09:25;97455.53;;;6.42;98.54
80242;BME280;69556;45.004;7.532;2024-02-26T03:11:50;97444.19;;;6.42;97.89
80242;BME280;69556;45.004;7.532;2024-02-26T03:14:16;97439.06;;;6.39;98.70
80242;BME280;69556;45.004;7.532;2024-02-26T03:16:41;97448.44;;;6.44;98.31
80242;BME280;69556;45.004;7.532;2024-02-26T03:19:06;97434.66;;;6.39;97.27
80242;BME280;69556;45.004;7.532;2024-02-26T03:21:32;97449.44;;;6.42;96.96
80242;BME280;69556;45.004;7.532;2024-02-26T03:23:57;97445.59;;;6.27;96.16
80242;BME280;69556;45.004;7.532;2024-02-26T03:26:22;97438.28;;;6.35;96.31
80242;BME280;69556;45.004;7.532;2024-02-26T03:28:48;97430.44;;;6.35;95.77
80242;BME280;69556;45.004;7.532;2024-02-26T03:31:13;97430.38;;;6.37;94.76
80242;BME280;69556;45.004;7.532;2024-02-26T03:33:39;97436.81;;;6.28;94.75
80242;BME280;69556;45.004;7.532;2024-02-26T03:36:04;97433.22;;;6.31;95.16
80242;BME280;69556;45.004;7.532;2024-02-26T03:38:30;97425.47;;;6.28;94.37
80242;BME280;69556;45.004;7.532;2024-02-26T03:40:55;97441.31;;;6.25;92.99
80242;BME280;69556;45.004;7.532;2024-02-26T03:43:21;97435.38;;;6.19;93.01
80242;BME280;69556;45.004;7.532;2024-02-26T03:45:47;97431.91;;;6.19;93.24
80242;BME280;69556;45.004;7.532;2024-02-26T03:48:12;97426.69;;;6.17;93.49
80242;BME280;69556;45.004;7.532;2024-02-26T03:50:37;97421.59;;;6.14;92.97
80242;BME280;69556;45.004;7.532;2024-02-26T03:53:03;97429.59;;;6.10;93.83
80242;BME280;69556;45.004;7.532;2024-02-26T03:55:28;97437.47;;;6.10;94.13
80242;BME280;69556;45.004;7.532;2024-02-26T03:57:54;97426.28;;;6.05;93.38
80242;BME280;69556;45.004;7.532;2024-02-26T04:00:20;97433.06;;;6.10;93.71
80242;BME280;69556;45.004;7.532;2024-02-26T04:02:47;97435.59;;;6.13;93.56
80242;BME280;69556;45.004;7.532;2024-02-26T04:05:13;97440.13;;;6.08;92.84
80242;BME280;69556;45.004;7.532;2024-02-26T04:07:39;97434.09;;;6.06;92.78
80242;BME280;69556;45.004;7.532;2024-02-26T04:10:09;97436.09;;;5.98;93.38
80242;BME280;69556;45.004;7.532;2024-02-26T04:12:34;97435.31;;;5.96;93.31
80242;BME280;69556;45.004;7.532;2024-02-26T04:15:00;97428.25;;;5.98;93.34
80242;BME280;69556;45.004;7.532;2024-02-26T04:17:25;97431.91;;;5.93;93.39
80242;BME280;69556;45.004;7.532;2024-02-26T04:19:50;97431.88;;;5.94;93.28
80242;BME280;69556;45.004;7.532;2024-02-26T04:22:16;97427.66;;;5.90;92.83
80242;BME280;69556;45.004;7.532;2024-02-26T04:24:41;97428.63;;;5.86;93.62
80242;BME280;69556;45.004;7.532;2024-02-26T04:27:06;97420.97;;;5.80;94.07
80242;BME280;69556;45.004;7.532;2024-02-26T04:29:32;97426.22;;;5.80;93.78
80242;BME280;69556;45.004;7.532;2024-02-26T04:31:57;97427.13;;;5.79;94.24
80242;BME280;69556;45.004;7.532;2024-02-26T04:34:22;97422.00;;;5.76;94.69
80242;BME280;69556;45.004;7.532;2024-02-26T04:36:48;97423.72;;;5.77;94.48
80242;BME280;69556;45.004;7.532;2024-02-26T04:39:13;97419.50;;;5.73;94.80
80242;BME280;69556;45.004;7.532;2024-02-26T04:41:39;97427.28;;;5.74;94.83
80242;BME280;69556;45.004;7.532;2024-02-26T04:44:05;97431.59;;;5.75;95.32
80242;BME280;69556;45.004;7.532;2024-02-26T04:46:30;97425.03;;;5.64;96.28
80242;BME280;69556;45.004;7.532;2024-02-26T04:48:56;97421.25;;;5.72;95.34
80242;BME280;69556;45.004;7.532;2024-02-26T04:51:21;97409.09;;;5.70;95.78
80242;BME280;69556;45.004;7.532;2024-02-26T04:53:47;97418.72;;;5.69;96.06
80242;BME280;69556;45.004;7.532;2024-02-26T04:56:12;97411.94;;;5.64;95.59
80242;BME280;69556;45.004;7.532;2024-02-26T04:58:37;97420.44;;;5.70;96.27
80242;BME280;69556;45.004;7.532;2024-02-26T05:01:03;97425.78;;;5.67;96.31
80242;BME280;69556;45.004;7.532;2024-02-26T05:03:29;97430.03;;;5.70;96.09
80242;BME280;69556;45.004;7.532;2024-02-26T05:05:54;97422.31;;;5.67;96.65
80242;BME280;69556;45.004;7.532;2024-02-26T05:08:20;97426.78;;;5.63;96.62
80242;BME280;69556;45.004;7.532;2024-02-26T05:10:45;97426.03;;;5.60;96.75
80242;BME280;69556;45.004;7.532;2024-02-26T05:13:11;97418.13;;;5.61;96.98
80242;BME280;69556;45.004;7.532;2024-02-26T05:15:36;97422.41;;;5.64;96.85
80242;BME280;69556;45.004;7.532;2024-02-26T05:18:02;97422.34;;;5.65;96.75
80242;BME280;69556;45.004;7.532;2024-02-26T05:20:28;97419.09;;;5.59;97.25
80242;BME280;69556;45.004;7.532;2024-02-26T05:22:54;97420.88;;;5.57;97.78
80242;BME280;69556;45.004;7.532;2024-02-26T05:25:19;97415.59;;;5.58;98.19
80242;BME280;69556;45.004;7.532;2024-02-26T05:27:45;97414.72;;;5.59;97.45
80242;BME280;69556;45.004;7.532;2024-02-26T05:30:11;97409.66;;;5.53;97.53
80242;BME280;69556;45.004;7.532;2024-02-26T05:32:37;97407.50;;;5.40;97.73
80242;BME280;69556;45.004;7.532;2024-02-26T05:35:02;97430.03;;;5.44;97.70
80242;BME280;69556;45.004;7.532;2024-02-26T05:37:30;97423.09;;;5.43;96.96
80242;BME280;69556;45.004;7.532;2024-02-26T05:39:56;97423.06;;;5.44;97.99
80242;BME280;69556;45.004;7.532;2024-02-26T05:42:21;97411.75;;;5.42;97.97
80242;BME280;69556;45.004;7.532;2024-02-26T05:44:46;97406.34;;;5.48;97.48
80242;BME280;69556;45.004;7.532;2024-02-26T05:47:12;97392.44;;;5.46;98.19
80242;BME280;69556;45.004;7.532;2024-02-26T05:49:38;97395.06;;;5.46;97.25
80242;BME280;69556;45.004;7.532;2024-02-26T05:52:04;97396.94;;;5.43;97.43
80242;BME280;69556;45.004;7.532;2024-02-26T05:54:29;97402.13;;;5.44;97.66
80242;BME280;69556;45.004;7.532;2024-02-26T05:56:55;97413.38;;;5.46;97.31
80242;BME280;69556;45.004;7.532;2024-02-26T05:59:20;97408.13;;;5.46;96.96
80242;BME280;69556;45.004;7.532;2024-02-26T06:01:46;97394.41;;;5.40;96.32
80242;BME280;69556;45.004;7.532;2024-02-26T06:04:11;97396.03;;;5.44;96.37
80242;BME280;69556;45.004;7.532;2024-02-26T06:06:37;97393.44;;;5.42;96.62
80242;BME280;69556;45.004;7.532;2024-02-26T06:09:02;97393.53;;;5.41;96.37
80242;BME280;69556;45.004;7.532;2024-02-26T06:11:30;97396.00;;;5.45;95.82
80242;BME280;69556;45.004;7.532;2024-02-26T06:13:55;97404.84;;;5.41;95.38
80242;BME280;69556;45.004;7.532;2024-02-26T06:16:21;97398.69;;;5.42;95.45
80242;BME280;69556;45.004;7.532;2024-02-26T06:18:46;97396.84;;;5.46;95.03
80242;BME280;69556;45.004;7.532;2024-02-26T06:21:11;97396.19;;;5.39;95.00
80242;BME280;69556;45.004;7.532;2024-02-26T06:23:38;97391.06;;;5.36;95.48
80242;BME280;69556;45.004;7.532;2024-02-26T06:26:03;97397.13;;;5.37;95.09
80242;BME280;69556;45.004;7.532;2024-02-26T06:28:29;97403.31;;;5.34;94.88
80242;BME280;69556;45.004;7.532;2024-02-26T06:30:57;97408.94;;;5.22;94.17
80242;BME280;69556;45.004;7.532;2024-02-26T06:33:22;97419.97;;;5.31;93.30
80242;BME280;69556;45.004;7.532;2024-02-26T06:35:48;97429.00;;;5.21;93.93
80242;BME280;69556;45.004;7.532;2024-02-26T06:38:13;97427.19;;;5.23;93.74
80242;BME280;69556;45.004;7.532;2024-02-26T06:40:39;97429.78;;;5.25;93.53
80242;BME280;69556;45.004;7.532;2024-02-26T06:43:04;97439.25;;;5.27;93.48
80242;BME280;69556;45.004;7.532;2024-02-26T06:45:30;97429.81;;;5.23;93.46
80242;BME280;69556;45.004;7.532;2024-02-26T06:47:56;97431.69;;;5.18;94.19
80242;BME280;69556;45.004;7.532;2024-02-26T06:50:21;97435.25;;;5.17;94.44
80242;BME280;69556;45.004;7.532;2024-02-26T06:52:47;97449.28;;;5.13;94.42
80242;BME280;69556;45.004;7.532;2024-02-26T06:55:12;97443.97;;;5.18;94.25
80242;BME280;69556;45.004;7.532;2024-02-26T06:57:38;97450.28;;;5.09;94.02
80242;BME280;69556;45.004;7.532;2024-02-26T07:00:04;97448.69;;;5.05;93.63
80242;BME280;69556;45.004;7.532;2024-02-26T07:02:30;97454.66;;;5.09;94.19
80242;BME280;69556;45.004;7.532;2024-02-26T07:04:55;97464.47;;;5.02;94.68
80242;BME280;69556;45.004;7.532;2024-02-26T07:07:23;97470.59;;;5.01;94.35
80242;BME280;69556;45.004;7.532;2024-02-26T07:09:48;97476.09;;;4.92;94.97
80242;BME280;69556;45.004;7.532;2024-02-26T07:12:14;97487.38;;;4.94;96.10
80242;BME280;69556;45.004;7.532;2024-02-26T07:14:39;97483.19;;;4.88;94.99
80242;BME280;69556;45.004;7.532;2024-02-26T07:17:04;97496.06;;;4.95;94.98
80242;BME280;69556;45.004;7.532;2024-02-26T07:19:30;97478.00;;;4.87;95.03
80242;BME280;69556;45.004;7.532;2024-02-26T07:21:55;97483.94;;;4.92;95.48
80242;BME280;69556;45.004;7.532;2024-02-26T07:24:21;97486.59;;;4.91;95.43
80242;BME280;69556;45.004;7.532;2024-02-26T07:26:46;97490.00;;;4.94;95.93
80242;BME280;69556;45.004;7.532;2024-02-26T07:29:12;97484.84;;;4.91;96.71
80242;BME280;69556;45.004;7.532;2024-02-26T07:31:37;97486.72;;;4.86;96.54
80242;BME280;69556;45.004;7.532;2024-02-26T07:34:02;97494.50;;;4.89;96.54
80242;BME280;69556;45.004;7.532;2024-02-26T07:36:28;97496.38;;;4.84;97.16
80242;BME280;69556;45.004;7.532;2024-02-26T07:38:53;97502.38;;;4.87;97.34
80242;BME280;69556;45.004;7.532;2024-02-26T07:41:20;97505.25;;;4.78;97.20
80242;BME280;69556;45.004;7.532;2024-02-26T07:43:45;97500.00;;;4.80;96.96
80242;BME280;69556;45.004;7.532;2024-02-26T07:46:14;97504.28;;;4.81;96.86
80242;BME280;69556;45.004;7.532;2024-02-26T07:48:39;97501.91;;;4.73;96.84
80242;BME280;69556;45.004;7.532;2024-02-26T07:51:04;97500.94;;;4.77;96.91
80242;BME280;69556;45.004;7.532;2024-02-26T07:53:30;97502.75;;;4.75;96.87
80242;BME280;69556;45.004;7.532;2024-02-26T07:55:56;97507.28;;;4.69;97.06
80242;BME280;69556;45.004;7.532;2024-02-26T07:58:23;97507.31;;;4.67;96.96
80242;BME280;69556;45.004;7.532;2024-02-26T08:00:48;97514.13;;;4.73;96.83
80242;BME280;69556;45.004;7.532;2024-02-26T08:03:14;97515.69;;;4.80;96.94
80242;BME280;69556;45.004;7.532;2024-02-26T08:05:41;97518.31;;;4.78;97.45
80242;BME280;69556;45.004;7.532;2024-02-26T08:08:07;97514.84;;;4.78;97.26
80242;BME280;69556;45.004;7.532;2024-02-26T08:10:33;97515.72;;;4.78;96.87
80242;BME280;69556;45.004;7.532;2024-02-26T08:12:58;97517.47;;;4.78;96.73
80242;BME280;69556;45.004;7.532;2024-02-26T08:15:30;97521.94;;;4.74;96.97
80242;BME280;69556;45.004;7.532;2024-02-26T08:17:56;97520.34;;;4.69;96.11
80242;BME280;69556;45.004;7.532;2024-02-26T08:20:21;97516.19;;;4.62;95.68
80242;BME280;69556;45.004;7.532;2024-02-26T08:22:46;97516.72;;;4.42;96.93
80242;BME280;69556;45.004;7.532;2024-02-26T08:25:12;97521.06;;;4.43;96.53
80242;BME280;69556;45.004;7.532;2024-02-26T08:27:37;97518.38;;;4.44;96.81
80242;BME280;69556;45.004;7.532;2024-02-26T08:30:03;97515.88;;;4.41;95.53
80242;BME280;69556;45.004;7.532;2024-02-26T08:32:28;97499.56;;;4.33;95.86
80242;BME280;69556;45.004;7.532;2024-02-26T08:34:54;97505.81;;;4.26;95.26
80242;BME280;69556;45.004;7.532;2024-02-26T08:37:19;97503.19;;;4.26;95.85
80242;BME280;69556;45.004;7.532;2024-02-26T08:39:44;97501.69;;;4.18;95.12
80242;BME280;69556;45.004;7.532;2024-02-26T08:42:11;97505.84;;;4.25;95.43
80242;BME280;69556;45.004;7.532;2024-02-26T08:44:36;97506.88;;;4.19;95.26
80242;BME280;69556;45.004;7.532;2024-02-26T08:47:01;97514.47;;;4.28;95.91
80242;BME280;69556;45.004;7.532;2024-02-26T08:49:27;97504.16;;;4.24;95.45
80242;BME280;69556;45.004;7.532;2024-02-26T08:51:53;97508.63;;;4.19;95.32
80242;BME280;69556;45.004;7.532;2024-02-26T08:54:18;97499.78;;;4.24;94.88
80242;BME280;69556;45.004;7.532;2024-02-26T08:56:43;97510.94;;;4.29;95.85
80242;BME280;69556;45.004;7.532;2024-02-26T08:59:09;97515.38;;;4.27;95.57
80242;BME280;69556;45.004;7.532;2024-02-26T09:01:35;97508.41;;;4.28;95.69
80242;BME280;69556;45.004;7.532;2024-02-26T09:04:01;97511.69;;;4.34;94.99
80242;BME280;69556;45.004;7.532;2024-02-26T09:06:26;97505.44;;;4.40;95.14
80242;BME280;69556;45.004;7.532;2024-02-26T09:08:51;97500.16;;;4.43;95.12
80242;BME280;69556;45.004;7.532;2024-02-26T09:11:17;97509.81;;;4.39;95.18
80242;BME280;69556;45.004;7.532;2024-02-26T09:13:45;97509.56;;;4.49;95.61
80242;BME280;69556;45.004;7.532;2024-02-26T09:16:11;97517.41;;;4.49;95.01
80242;BME280;69556;45.004;7.532;2024-02-26T09:18:36;97501.78;;;4.47;95.52
80242;BME280;69556;45.004;7.532;2024-02-26T09:21:05;97503.44;;;4.50;95.32
80242;BME280;69556;45.004;7.532;2024-02-26T09:23:33;97500.56;;;4.59;94.55
80242;BME280;69556;45.004;7.532;2024-02-26T09:26:00;97496.59;;;4.46;94.77
80242;BME280;69556;45.004;7.532;2024-02-26T09:28:25;97501.56;;;4.55;95.91
80242;BME280;69556;45.004;7.532;2024-02-26T09:30:50;97503.78;;;4.68;95.59
80242;BME280;69556;45.004;7.532;2024-02-26T09:33:16;97500.97;;;4.76;94.64
80242;BME280;69556;45.004;7.532;2024-02-26T09:35:41;97503.50;;;4.79;94.47
80242;BME280;69556;45.004;7.532;2024-02-26T09:38:07;97503.75;;;4.70;94.13
80242;BME280;69556;45.004;7.532;2024-02-26T09:40:32;97492.41;;;4.71;94.42
80242;BME280;69556;45.004;7.532;2024-02-26T09:43:00;97500.97;;;4.76;94.63
80242;BME280;69556;45.004;7.532;2024-02-26T09:45:30;97494.94;;;4.74;94.96
80242;BME280;69556;45.004;7.532;2024-02-26T09:47:58;97505.09;;;4.84;95.00
80242;BME280;69556;45.004;7.532;2024-02-26T09:50:24;97500.16;;;4.74;95.59
80242;BME280;69556;45.004;7.532;2024-02-26T09:52:51;97501.81;;;4.76;94.93
80242;BME280;69556;45.004;7.532;2024-02-26T09:55:16;97516.59;;;4.77;94.63
80242;BME280;69556;45.004;7.532;2024-02-26T09:57:44;97511.19;;;4.85;94.48
80242;BME280;69556;45.004;7.532;2024-02-26T10:00:15;97515.16;;;4.98;94.67
80242;BME280;69556;45.004;7.532;2024-02-26T10:02:47;97527.34;;;4.99;94.98
80242;BME280;69556;45.004;7.532;2024-02-26T10:05:18;97526.53;;;4.96;94.58
80242;BME280;69556;45.004;7.532;2024-02-26T10:07:45;97529.97;;;4.98;94.08
80242;BME280;69556;45.004;7.532;2024-02-26T10:10:11;97536.59;;;5.09;95.00
80242;BME280;69556;45.004;7.532;2024-02-26T10:12:36;97523.59;;;5.08;94.18
80242;BME280;69556;45.004;7.532;2024-02-26T10:15:02;97524.31;;;5.13;94.51
80242;BME280;69556;45.004;7.532;2024-02-26T10:17:27;97517.22;;;5.16;94.75
80242;BME280;69556;45.004;7.532;2024-02-26T10:19:54;97511.28;;;5.11;94.88
80242;BME280;69556;45.004;7.532;2024-02-26T10:22:22;97531.34;;;5.11;94.44
80242;BME280;69556;45.004;7.532;2024-02-26T10:24:47;97523.38;;;5.14;94.59
80242;BME280;69556;45.004;7.532;2024-02-26T10:27:13;97533.78;;;5.17;95.80
80242;BME280;69556;45.004;7.532;2024-02-26T10:29:38;97543.41;;;5.15;95.60
80242;BME280;69556;45.004;7.532;2024-02-26T10:32:04;97538.88;;;5.21;95.30
80242;BME280;69556;45.004;7.532;2024-02-26T10:34:29;97537.19;;;5.19;95.32
80242;BME280;69556;45.004;7.532;2024-02-26T10:36:56;97534.41;;;5.25;96.01
80242;BME280;69556;45.004;7.532;2024-02-26T10:39:21;97530.84;;;5.27;94.26
80242;BME280;69556;45.004;7.532;2024-02-26T10:41:46;97529.06;;;5.28;95.01
80242;BME280;69556;45.004;7.532;2024-02-26T10:44:12;97531.75;;;5.26;94.44
80242;BME280;69556;45.004;7.532;2024-02-26T10:46:40;97535.38;;;5.22;93.99
80242;BME280;69556;45.004;7.532;2024-02-26T10:49:08;97536.03;;;5.29;93.89
80242;BME280;69556;45.004;7.532;2024-02-26T10:51:37;97543.34;;;5.18;94.61
80242;BME280;69556;45.004;7.532;2024-02-26T10:54:04;97545.78;;;5.24;92.95
80242;BME280;69556;45.004;7.532;2024-02-26T10:56:34;97540.53;;;5.24;93.87
80242;BME280;69556;45.004;7.532;2024-02-26T10:59:00;97545.91;;;5.19;93.33
80242;BME280;69556;45.004;7.532;2024-02-26T11:01:27;97531.16;;;5.17;93.47
80242;BME280;69556;45.004;7.532;2024-02-26T11:03:55;97537.88;;;5.25;94.02
80242;BME280;69556;45.004;7.532;2024-02-26T11:06:21;97539.50;;;5.29;94.19
80242;BME280;69556;45.004;7.532;2024-02-26T11:08:50;97540.25;;;5.33;93.48
80242;BME280;69556;45.004;7.532;2024-02-26T11:11:17;97531.38;;;5.39;93.71
80242;BME280;69556;45.004;7.532;2024-02-26T11:13:47;97528.03;;;5.33;93.02
80242;BME280;69556;45.004;7.532;2024-02-26T11:16:20;97533.28;;;5.33;93.80
80242;BME280;69556;45.004;7.532;2024-02-26T11:18:47;97525.56;;;5.29;94.27
80242;BME280;69556;45.004;7.532;2024-02-26T11:21:15;97526.31;;;5.32;95.21
80242;BME280;69556;45.004;7.532;2024-02-26T11:23:44;97523.66;;;5.34;94.60
80242;BME280;69556;45.004;7.532;2024-02-26T11:26:11;97523.38;;;5.43;94.84
80242;BME280;69556;45.004;7.532;2024-02-26T11:28:38;97522.66;;;5.38;94.77
80242;BME280;69556;45.004;7.532;2024-02-26T11:31:05;97530.25;;;5.47;95.29
80242;BME280;69556;45.004;7.532;2024-02-26T11:33:32;97531.19;;;5.45;94.50
80242;BME280;69556;45.004;7.532;2024-02-26T11:35:58;97529.47;;;5.44;93.56
80242;BME280;69556;45.004;7.532;2024-02-26T11:38:26;97536.56;;;5.40;94.92
80242;BME280;69556;45.004;7.532;2024-02-26T11:40:53;97538.41;;;5.37;94.15
80242;BME280;69556;45.004;7.532;2024-02-26T11:43:23;97534.13;;;5.34;94.41
80242;BME280;69556;45.004;7.532;2024-02-26T11:45:49;97540.13;;;5.38;94.88
80242;BME280;69556;45.004;7.532;2024-02-26T11:48:20;97535.16;;;5.28;94.69
80242;BME280;69556;45.004;7.532;2024-02-26T11:50:48;97528.75;;;5.39;94.18
80242;BME280;69556;45.004;7.532;2024-02-26T11:53:46;97525.56;;;5.29;94.75
80242;BME280;69556;45.004;7.532;2024-02-26T11:58:45;97511.41;;;5.36;95.77
80242;BME280;69556;45.004;7.532;2024-02-26T12:04:04;97527.03;;;5.38;94.77
80242;BME280;69556;45.004;7.532;2024-02-26T12:06:30;97526.25;;;5.36;95.26
80242;BME280;69556;45.004;7.532;2024-02-26T12:08:56;97524.63;;;5.31;94.88
80242;BME280;69556;45.004;7.532;2024-02-26T12:11:21;97525.47;;;5.32;95.87
80242;BME280;69556;45.004;7.532;2024-02-26T12:13:47;97523.38;;;5.43;96.76
80242;BME280;69556;45.004;7.532;2024-02-26T12:16:37;97524.34;;;5.41;95.84
80242;BME280;69556;45.004;7.532;2024-02-26T12:19:07;97529.59;;;5.41;96.13
80242;BME280;69556;45.004;7.532;2024-02-26T12:21:34;97534.59;;;5.47;96.61
80242;BME280;69556;45.004;7.532;2024-02-26T12:24:10;97524.28;;;5.42;96.28
80242;BME280;69556;45.004;7.532;2024-02-26T12:26:36;97526.03;;;5.42;95.60
80242;BME280;69556;45.004;7.532;2024-02-26T12:29:01;97536.44;;;5.45;94.07
80242;BME280;69556;45.004;7.532;2024-02-26T12:31:27;97528.03;;;5.33;93.61
80242;BME280;69556;45.004;7.532;2024-02-26T12:33:54;97529.88;;;5.31;94.08
80242;BME280;69556;45.004;7.532;2024-02-26T12:36:21;97533.88;;;5.42;94.38
80242;BME280;69556;45.004;7.532;2024-02-26T12:38:46;97533.81;;;5.45;93.51
80242;BME280;69556;45.004;7.532;2024-02-26T12:41:12;97535.72;;;5.40;93.68
80242;BME280;69556;45.004;7.532;2024-02-26T12:43:38;97537.44;;;5.41;93.06
80242;BME280;69556;45.004;7.532;2024-02-26T12:46:03;97523.56;;;5.37;93.15
80242;BME280;69556;45.004;7.532;2024-02-26T12:48:29;97533.09;;;5.40;93.53
80242;BME280;69556;45.004;7.532;2024-02-26T12:50:54;97527.91;;;5.38;93.95
80242;BME280;69556;45.004;7.532;2024-02-26T12:53:21;97528.63;;;5.43;93.69
80242;BME280;69556;45.004;7.532;2024-02-26T12:55:47;97526.81;;;5.45;94.13
80242;BME280;69556;45.004;7.532;2024-02-26T12:58:13;97536.50;;;5.42;93.96
80242;BME280;69556;45.004;7.532;2024-02-26T13:00:39;97535.72;;;5.40;94.08
80242;BME280;69556;45.004;7.532;2024-02-26T13:03:06;97540.97;;;5.38;93.89
80242;BME280;69556;45.004;7.532;2024-02-26T13:05:31;97538.22;;;5.43;94.14
80242;BME280;69556;45.004;7.532;2024-02-26T13:07:58;97554.97;;;5.37;93.40
80242;BME280;69556;45.004;7.532;2024-02-26T13:10:24;97552.03;;;5.48;94.06